Terminal Aerodrome Forecast
Issued by NWS Huntsville, AL

Home | Current Version | Previous Version | Text Only | Print | Product List | Glossary On
Versions: 1 2 3 4 5 6 7 8 9 10 11 12 13 14 15 16 17 18 19 20 21 22 23 24 25 26 27
000
FTUS44 KHUN 282226 AAA
TAFHSV
TAF AMD
KHSV 282226Z 2822/2918 31008KT P6SM VCTS SCT035CB BKN050
      TEMPO 2822/2901 5SM -TSRA
     FM290200 VRB03KT P6SM SCT070 SCT150
     FM291500 32005KT P6SM FEW070 BKN150=

USA.gov is the U.S. government's official web portal to all federal, state and local government web resources and services.